Wabasha, Minnesota
Current Conditions -  °F | °C
As of 10:35 PM on Tuesday 21 Oct 2014 (Local Time) from KRGK Reporting Station
Clear Clear  
Wind Chill: 42°   Ceiling: Unl
Heat Index: 46°   Visibility: 10mi
Dew Point: 39°   Wind: 9mph
Humidity: 76%   Direction: 130°SE
Pressure: 30.2"   Gusts: NA
Location:  44.38°N, 92.04°W
Report Text: KRGK 220335Z AUTO 13008KT 10SM CLR 08/04 A3020 RMK AO2
Loading
Personal Weather Stations






























Interactive Weather Map New forecast layout! Learn more

10-Day Weather Forecast

Advertisements
Track Severe Weather on mobile